Latest Weather Observations for Butlers Gorge

IDT60801

Issued at 4:05 am EST Monday 21 April 2014 (issued every 30 minutes, with the page automatically refreshed every 10 minutes)

About weather observations | Map of weather stations | Latest weather observations for TAS | Other Formats
Station Details ID: 096003 Name: BUTLERS GORGE Lat: -42.28 Lon: 146.28 Height: 667.0 m
Data from the previous 72 hours. | See also: Recent months at Butlers Gorge
Date/Time
EST
Temp
°C
App
Temp
°C
Dew
Point
Rel
Hum
%
Delta-T
°C
Wind Press
QNH
hPa
Press
MSL
hPa
Rain
since 9 am
mm
Dir
 
Spd
km/h
Gust
km/h
Spd
kts
Gust
kts
21/04:00am 0.5 -1.5 0.2 98 0.1 NE 0 0 0 0 - - 4.8
21/03:30am 0.6 -1.4 0.2 97 0.2 NE 0 0 0 0 - - 4.8
21/03:00am 1.2 -0.7 0.8 97 0.2 CALM 0 0 0 0 - - 4.8
21/02:30am 1.7 -0.1 1.3 97 0.2 CALM 0 0 0 0 - - 4.8
21/02:00am 1.9 0.1 1.2 95 0.3 CALM 0 0 0 0 - - 4.8
21/01:30am 2.5 0.8 1.9 96 0.2 CALM 0 4 0 2 - - 4.8
21/01:00am 2.4 0.7 1.8 96 0.2 CALM 0 0 0 0 - - 4.8
21/12:30am 2.5 0.8 1.8 95 0.3 CALM 0 0 0 0 - - 4.8
21/12:00am 2.6 0.9 1.7 94 0.4 SW 0 0 0 0 - - 4.8
 
Date/Time
EST
Temp
°C
App
Temp
°C
Dew
Point
Rel
Hum
%
Delta-T
°C
Wind Press
QNH
hPa
Press
MSL
hPa
Rain
since 9 am
mm
Dir
 
Spd
km/h
Gust
km/h
Spd
kts
Gust
kts
20/11:30pm 2.9 1.2 1.9 93 0.4 CALM 0 0 0 0 - - 4.8
20/11:00pm 3.5 1.1 1.9 89 0.7 SSW 4 7 2 4 - - 4.8
20/10:30pm 4.4 1.6 2.1 85 1.0 WSW 6 9 3 5 - - 4.8
20/10:00pm 4.4 2.5 2.6 88 0.8 WSW 2 7 1 4 - - 4.8
20/09:30pm 4.8 2.6 3.1 89 0.7 SW 4 7 2 4 - - 4.8
20/09:00pm 5.2 2.2 1.9 79 1.4 WSW 7 11 4 6 - - 4.8
20/08:30pm 5.3 2.0 2.5 82 1.2 SW 9 17 5 9 - - 4.8
20/08:00pm 5.6 1.9 2.6 81 1.3 WSW 11 17 6 9 - - 4.8
20/07:30pm 5.5 2.2 2.7 82 1.2 WSW 9 19 5 10 - - 4.8
20/07:00pm 6.2 2.3 3.5 83 1.2 W 13 28 7 15 - - 4.8
20/06:30pm 6.4 2.9 3.7 83 1.2 WSW 11 28 6 15 - - 4.8
20/06:00pm 6.8 4.0 5.1 89 0.8 W 9 17 5 9 - - 4.8
20/05:30pm 7.1 4.4 5.4 89 0.8 W 9 13 5 7 - - 4.8
20/05:00pm 7.4 3.9 5.4 87 0.9 WSW 13 20 7 11 - - 4.8
20/04:30pm 8.8 6.8 7.3 90 0.7 SW 7 17 4 9 - - 4.6
20/04:00pm 9.1 6.7 7.2 88 0.9 WNW 9 17 5 9 - - 4.6
20/03:30pm 9.2 6.5 7.5 89 0.8 W 11 19 6 10 - - 4.6
20/03:00pm 9.5 7.9 7.9 90 0.8 WNW 6 13 3 7 - - 4.2
20/02:30pm 9.0 6.0 7.5 90 0.7 WSW 13 26 7 14 - - 3.2
20/02:00pm 9.6 6.6 7.5 87 1.0 WNW 13 28 7 15 - - 0.8
20/01:30pm 9.4 5.5 7.3 87 1.0 NW 17 32 9 17 - - 0.6
20/01:00pm 9.3 6.6 7.4 88 0.9 NW 11 22 6 12 - - 0.4
20/12:30pm 9.1 6.4 7.4 89 0.8 NW 11 20 6 11 - - 0.2
20/12:00pm 9.0 5.8 7.0 87 1.0 NW 13 26 7 14 - - 0.2
20/11:30am 8.4 5.5 6.7 89 0.8 NW 11 20 6 11 - - 0.0
20/11:00am 8.7 5.4 6.5 86 1.1 WNW 13 24 7 13 - - 0.0
20/10:30am 8.4 5.4 6.0 85 1.1 WNW 11 26 6 14 - - 0.0
20/10:00am 9.0 5.2 5.6 79 1.6 WNW 15 30 8 16 - - 0.0
20/09:30am 8.4 4.9 5.5 82 1.4 W 13 22 7 12 - - 0.0
20/09:00am 7.8 4.4 5.8 87 0.9 WNW 13 22 7 12 - - 0.4
20/08:30am 7.8 3.8 4.9 82 1.3 WNW 15 28 8 15 - - 0.4
20/08:00am 7.4 3.7 4.5 82 1.3 W 13 24 7 13 - - 0.4
20/07:30am 7.0 3.7 4.7 85 1.0 W 11 19 6 10 - - 0.4
20/07:00am 6.8 2.7 4.5 85 1.0 WNW 15 28 8 15 - - 0.4
20/06:30am 6.9 3.9 4.2 83 1.2 W 9 13 5 7 - - 0.4
20/06:00am 6.5 3.5 4.2 85 1.0 W 9 22 5 12 - - 0.4
20/05:30am 6.4 3.0 4.1 85 1.0 W 11 20 6 11 - - 0.4
20/05:00am 6.1 3.6 3.6 84 1.1 WNW 6 11 3 6 - - 0.4
20/04:30am 6.1 2.2 3.6 84 1.1 NW 13 26 7 14 - - 0.4
20/04:00am 6.2 3.4 3.2 81 1.3 WNW 7 20 4 11 - - 0.4
20/03:30am 6.1 3.3 3.1 81 1.3 NW 7 11 4 6 - - 0.4
20/03:00am 5.4 2.8 3.4 87 0.9 WSW 6 9 3 5 - - 0.4
20/02:30am 5.1 2.3 3.0 86 0.9 W 7 11 4 6 - - 0.4
20/02:00am 5.0 2.3 2.9 86 0.9 SW 6 9 3 5 - - 0.4
20/01:30am 5.2 2.3 2.6 83 1.1 W 7 11 4 6 - - 0.4
20/01:00am 5.1 2.1 2.1 81 1.3 W 7 13 4 7 - - 0.4
20/12:30am 5.1 2.3 1.9 80 1.3 W 6 11 3 6 - - 0.4
20/12:00am 5.2 2.2 1.9 79 1.4 WNW 7 13 4 7 - - 0.4
 
Date/Time
EST
Temp
°C
App
Temp
°C
Dew
Point
Rel
Hum
%
Delta-T
°C
Wind Press
QNH
hPa
Press
MSL
hPa
Rain
since 9 am
mm
Dir
 
Spd
km/h
Gust
km/h
Spd
kts
Gust
kts
19/11:30pm 5.2 1.7 1.5 77 1.5 WNW 9 13 5 7 - - 0.4
19/11:00pm 5.1 1.6 1.4 77 1.5 NW 9 17 5 9 - - 0.4
19/10:30pm 5.1 1.7 1.8 79 1.4 WNW 9 15 5 8 - - 0.4
19/10:00pm 5.2 2.2 1.9 79 1.4 WNW 7 11 4 6 - - 0.4
19/09:30pm 5.2 1.8 2.0 80 1.3 WNW 9 19 5 10 - - 0.4
19/09:00pm 5.3 2.5 1.8 78 1.5 WSW 6 7 3 4 - - 0.4
19/08:30pm 5.3 1.8 1.1 74 1.7 WNW 9 15 5 8 - - 0.4
19/08:00pm 5.2 2.4 1.9 79 1.4 WSW 6 13 3 7 - - 0.4
19/07:30pm 5.1 2.1 2.3 82 1.2 WSW 7 15 4 8 - - 0.4
19/07:00pm 4.7 1.9 2.1 83 1.1 WSW 6 13 3 7 - - 0.4
19/06:30pm 4.9 2.8 3.9 93 0.4 WSW 4 9 2 5 - - 0.4
19/06:00pm 4.9 2.2 3.9 93 0.4 WSW 7 15 4 8 - - 0.2
19/05:30pm 5.2 1.7 3.4 88 0.8 WSW 11 17 6 9 - - 0.2
19/05:00pm 5.7 2.6 3.7 87 0.9 W 9 13 5 7 - - 0.2
19/04:30pm 5.9 2.8 3.7 86 1.0 WSW 9 15 5 8 - - 0.2
19/04:00pm 6.6 3.6 4.3 85 1.0 WSW 9 15 5 8 - - 0.2
19/03:30pm 6.4 3.5 4.7 89 0.8 SW 9 15 5 8 - - 0.2
19/03:00pm 6.9 4.0 4.6 85 1.0 W 9 15 5 8 - - 0.2
19/02:30pm 6.5 2.9 5.0 90 0.7 SW 13 19 7 10 - - 0.2
19/02:00pm 7.4 4.1 4.4 81 1.4 SW 11 20 6 11 - - 0.0
19/01:30pm 8.4 5.0 3.8 73 2.1 WSW 11 19 6 10 - - 0.0
19/01:00pm 7.1 4.2 4.9 86 1.0 W 9 15 5 8 - - 0.0
19/12:30pm 6.9 4.0 4.6 85 1.0 W 9 17 5 9 - - 0.0
19/12:00pm 7.3 3.5 3.7 78 1.6 SW 13 22 7 12 - - 0.0
19/11:30am 6.9 3.3 2.8 75 1.8 WSW 11 17 6 9 - - 0.0
19/11:00am 6.5 3.7 3.1 79 1.5 WNW 7 13 4 7 - - 0.0
19/10:30am 6.4 3.7 3.6 82 1.2 WNW 7 15 4 8 - - 0.0
19/10:00am 6.3 3.6 3.6 83 1.2 WSW 7 13 4 7 - - 0.0
19/09:30am 5.3 2.1 3.2 86 0.9 W 9 20 5 11 - - 0.0
19/09:00am 5.6 2.8 3.1 84 1.1 N 7 9 4 5 - - 6.8
19/08:30am 4.9 2.2 2.9 87 0.9 NNW 6 9 3 5 - - 6.8
19/08:00am 4.6 1.8 3.3 91 0.6 WNW 7 13 4 7 - - 6.8
19/07:30am 4.2 1.0 2.9 91 0.6 W 9 20 5 11 - - 6.8
19/07:00am 4.3 0.7 3.0 91 0.6 WNW 11 19 6 10 - - 6.6
19/06:30am 4.1 1.2 2.8 91 0.5 N 7 11 4 6 - - 6.4
19/06:00am 4.1 0.9 2.8 91 0.5 NW 9 15 5 8 - - 6.4
19/05:30am 4.1 1.3 3.1 93 0.4 NNW 7 9 4 5 - - 6.4
19/05:00am 4.0 1.3 2.8 92 0.5 N 6 9 3 5 - - 6.2
19/04:30am 4.2 1.4 2.9 91 0.6 NNW 7 13 4 7 - - 6.2
19/04:00am 4.2 1.9 2.6 89 0.7 N 4 9 2 5 - - 5.8
19/03:30am 4.3 1.0 2.5 88 0.8 N 9 17 5 9 - - 5.8
19/03:00am 4.6 1.4 2.8 88 0.8 WNW 9 28 5 15 - - 5.4
19/02:30am 4.7 0.3 2.7 87 0.8 WSW 15 26 8 14 - - 5.2
19/02:00am 4.7 -0.1 2.7 87 0.8 SW 17 26 9 14 - - 5.2
19/01:30am 4.5 0.6 3.2 91 0.6 SW 13 28 7 15 - - 5.2
19/01:00am 4.7 1.1 3.0 89 0.7 WSW 11 20 6 11 - - 4.6
19/12:30am 4.4 0.7 2.6 88 0.8 SW 11 20 6 11 - - 4.6
19/12:00am 4.6 0.6 3.1 90 0.6 WSW 13 20 7 11 - - 4.4
 
Date/Time
EST
Temp
°C
App
Temp
°C
Dew
Point
Rel
Hum
%
Delta-T
°C
Wind Press
QNH
hPa
Press
MSL
hPa
Rain
since 9 am
mm
Dir
 
Spd
km/h
Gust
km/h
Spd
kts
Gust
kts
18/11:30pm 4.6 0.2 2.9 89 0.7 SW 15 26 8 14 - - 4.4
18/11:00pm 5.2 1.2 2.6 83 1.1 WSW 13 24 7 13 - - 4.0
18/10:30pm 5.0 0.6 2.7 85 1.0 WSW 15 24 8 13 - - 4.0
18/10:00pm 5.1 1.1 2.8 85 1.0 WSW 13 20 7 11 - - 4.0
18/09:30pm 5.2 1.1 2.2 81 1.3 WSW 13 20 7 11 - - 4.0
18/09:00pm 5.1 1.0 2.5 83 1.1 WSW 13 22 7 12 - - 4.0
18/08:30pm 5.1 0.7 2.6 84 1.1 WSW 15 30 8 16 - - 4.0
18/08:00pm 5.4 1.5 3.4 87 0.9 WSW 13 26 7 14 - - 3.8
18/07:30pm 5.6 2.1 3.4 86 1.0 WSW 11 22 6 12 - - 3.6
18/07:00pm 5.5 1.9 3.2 85 1.0 WSW 11 17 6 9 - - 3.6
18/06:30pm 5.6 2.5 3.4 86 1.0 W 9 20 5 11 - - 3.4
18/06:00pm 5.8 2.8 4.0 88 0.8 SW 9 15 5 8 - - 3.2
18/05:30pm 6.2 3.1 3.4 82 1.2 WNW 9 17 5 9 - - 2.6
18/05:00pm 6.4 3.4 3.9 84 1.1 W 9 17 5 9 - - 2.6
18/04:30pm 7.0 3.8 3.3 77 1.6 WSW 9 17 5 9 - - 2.6
18/04:00pm 7.3 3.5 3.7 78 1.6 W 13 24 7 13 - - 2.6
18/03:30pm 6.7 3.8 4.5 86 1.0 W 9 24 5 13 - - 2.4
18/03:00pm 8.5 4.3 3.6 71 2.2 W 15 26 8 14 - - 2.2
18/02:30pm 7.2 3.3 3.6 78 1.6 W 13 24 7 13 - - 2.2
18/02:00pm 6.9 3.4 3.5 79 1.5 W 11 22 6 12 - - 2.0
18/01:30pm 8.6 3.9 3.2 69 2.4 SW 17 32 9 17 - - 1.8
18/01:00pm 9.4 5.4 4.8 73 2.1 W 15 24 8 13 - - 1.8
18/12:30pm 7.8 3.6 3.8 76 1.8 WSW 15 24 8 13 - - 1.8
18/12:00pm 7.2 3.1 4.5 83 1.2 WSW 15 26 8 14 - - 1.8
18/11:30am 7.3 4.5 5.1 86 1.0 W 9 15 5 8 - - 1.8
18/11:00am 6.8 4.4 4.3 84 1.1 W 6 11 3 6 - - 1.8
18/10:30am 6.8 3.9 4.8 87 0.9 W 9 15 5 8 - - 1.8
18/10:00am 6.7 3.0 4.5 86 1.0 WSW 13 26 7 14 - - 1.2
18/09:30am 7.2 3.7 5.5 89 0.8 WSW 13 24 7 13 - - 0.6
18/09:00am 8.1 3.9 5.9 86 1.0 WSW 17 35 9 19 - - 1.6
18/08:30am 10.9 9.0 7.6 80 1.7 W 7 15 4 8 - - 0.0
18/08:00am 11.2 9.2 7.1 76 2.0 N 7 13 4 7 - - 0.0
18/07:30am 11.3 8.8 6.6 73 2.3 WNW 9 17 5 9 - - 0.0
18/07:00am 11.2 9.1 6.5 73 2.3 NNW 7 17 4 9 - - 0.0
18/06:30am 11.1 9.1 6.3 72 2.3 W 6 17 3 9 - - 0.0
18/06:00am 11.1 7.7 6.0 71 2.5 WNW 13 24 7 13 - - 0.0
18/05:30am 11.3 8.0 6.2 71 2.5 NW 13 26 7 14 - - 0.0
18/05:00am 11.1 9.6 6.6 74 2.2 W 4 9 2 5 - - 0.0
18/04:30am 11.6 9.0 6.3 70 2.6 W 9 17 5 9 - - 0.0

Other Formats:

Comma delimited format used in spreadsheet applications
http://www.bom.gov.au/fwo/IDT60801/IDT60801.94959.axf

JavaScript Object Notation format (JSON) in row-major order
http://www.bom.gov.au/fwo/IDT60801/IDT60801.94959.json